KAL1302 RKPC-RKSS
Flight info
| Callsign | KAL1302 |
|---|---|
| Flight time | 0h 45m |
| Altitude | 23000 |
| Route | KAMIT2E KAMIT Y722 OLMEN OLMEN2T |
| Aircraft | B738/M-SDE2E3FGHIRWXY/LB1 |
Departure
| Time | 2026-05-05 07:28 |
|---|---|
| Airport | Jeju International Airport (RKPC) |
Arrival
| Time | 2026-05-05 08:13 |
|---|---|
| Airport | Gimpo International Airport (RKSS) |
| Time | Latitude | Longitude | Altitude | Speed | Heading |
|---|---|---|---|---|---|
| 2026-05-05 07:06 | 33.50779 | 126.49299 | 93 ft | 0 kts | 182° |
| 2026-05-05 07:19 | 33.50792 | 126.49299 | 92 ft | 4 kts | 182° |
| 2026-05-05 07:19 | 33.50819 | 126.49301 | 91 ft | 4 kts | 182° |
| 2026-05-05 07:19 | 33.50841 | 126.49302 | 91 ft | 4 kts | 185° |
| 2026-05-05 07:20 | 33.50867 | 126.49308 | 89 ft | 4 kts | 206° |
| 2026-05-05 07:20 | 33.50889 | 126.49326 | 90 ft | 4 kts | 227° |
| 2026-05-05 07:20 | 33.50905 | 126.49352 | 90 ft | 4 kts | 238° |
| 2026-05-05 07:20 | 33.50907 | 126.49357 | 90 ft | 0 kts | 238° |
| 2026-05-05 07:22 | 33.50904 | 126.49350 | 90 ft | 4 kts | 238° |
| 2026-05-05 07:22 | 33.50841 | 126.49227 | 91 ft | 22 kts | 238° |
| 2026-05-05 07:23 | 33.50751 | 126.49051 | 89 ft | 25 kts | 238° |
| 2026-05-05 07:23 | 33.50706 | 126.48932 | 90 ft | 19 kts | 286° |
| 2026-05-05 07:23 | 33.50801 | 126.48833 | 89 ft | 15 kts | 295° |
| 2026-05-05 07:23 | 33.50765 | 126.48732 | 88 ft | 14 kts | 239° |
| 2026-05-05 07:24 | 33.50694 | 126.48592 | 89 ft | 26 kts | 238° |
| 2026-05-05 07:24 | 33.50593 | 126.48393 | 90 ft | 28 kts | 239° |
| 2026-05-05 07:24 | 33.50493 | 126.48201 | 92 ft | 26 kts | 238° |
| 2026-05-05 07:24 | 33.50401 | 126.48021 | 92 ft | 24 kts | 239° |
| 2026-05-05 07:25 | 33.50315 | 126.47853 | 92 ft | 23 kts | 238° |
| 2026-05-05 07:25 | 33.50233 | 126.47693 | 93 ft | 22 kts | 238° |
| 2026-05-05 07:25 | 33.50153 | 126.47537 | 94 ft | 22 kts | 238° |
| 2026-05-05 07:25 | 33.50075 | 126.47386 | 95 ft | 21 kts | 238° |
| 2026-05-05 07:26 | 33.50000 | 126.47239 | 96 ft | 20 kts | 239° |
| 2026-05-05 07:26 | 33.49927 | 126.47096 | 96 ft | 20 kts | 238° |
| 2026-05-05 07:26 | 33.49882 | 126.46952 | 96 ft | 19 kts | 295° |
| 2026-05-05 07:26 | 33.49972 | 126.46878 | 98 ft | 13 kts | 329° |
| 2026-05-05 07:27 | 33.50028 | 126.46913 | 97 ft | 10 kts | 61° |
| 2026-05-05 07:27 | 33.50069 | 126.46996 | 96 ft | 16 kts | 58° |
| 2026-05-05 07:27 | 33.50208 | 126.47266 | 96 ft | 71 kts | 58° |
| 2026-05-05 07:27 | 33.50581 | 126.47992 | 93 ft | 131 kts | 58° |
| 2026-05-05 07:28 | 33.51132 | 126.49009 | 408 ft | 150 kts | 56° |
| 2026-05-05 07:28 | 33.51702 | 126.50102 | 1009 ft | 160 kts | 60° |
| 2026-05-05 07:28 | 33.52321 | 126.51200 | 1706 ft | 153 kts | 44° |
| 2026-05-05 07:28 | 33.53146 | 126.52069 | 2234 ft | 167 kts | 40° |
| 2026-05-05 07:29 | 33.54021 | 126.52998 | 2861 ft | 169 kts | 43° |
| 2026-05-05 07:29 | 33.54899 | 126.53958 | 3427 ft | 176 kts | 43° |
| 2026-05-05 07:29 | 33.55854 | 126.55012 | 3688 ft | 203 kts | 43° |
| 2026-05-05 07:29 | 33.56953 | 126.56232 | 3890 ft | 227 kts | 43° |
| 2026-05-05 07:30 | 33.58168 | 126.57589 | 4074 ft | 251 kts | 43° |
| 2026-05-05 07:30 | 33.60892 | 126.60650 | 5100 ft | 276 kts | 43° |
| 2026-05-05 07:30 | 33.62296 | 126.62236 | 5886 ft | 278 kts | 43° |
| 2026-05-05 07:31 | 33.63709 | 126.63834 | 6675 ft | 281 kts | 43° |
| 2026-05-05 07:31 | 33.65207 | 126.65349 | 7399 ft | 284 kts | 27° |
| 2026-05-05 07:31 | 33.67093 | 126.66015 | 8157 ft | 284 kts | 7° |
| 2026-05-05 07:31 | 33.69069 | 126.66354 | 8933 ft | 289 kts | 6° |
| 2026-05-05 07:32 | 33.71073 | 126.66678 | 9705 ft | 294 kts | 6° |
| 2026-05-05 07:32 | 33.73120 | 126.67020 | 10386 ft | 302 kts | 6° |
| 2026-05-05 07:32 | 33.75285 | 126.67396 | 10587 ft | 328 kts | 7° |
| 2026-05-05 07:32 | 33.77625 | 126.67819 | 10771 ft | 351 kts | 7° |
| 2026-05-05 07:33 | 33.80111 | 126.68284 | 10940 ft | 373 kts | 7° |
| 2026-05-05 07:33 | 33.82719 | 126.68783 | 11347 ft | 384 kts | 8° |
| 2026-05-05 07:33 | 33.85378 | 126.69300 | 11978 ft | 389 kts | 8° |
| 2026-05-05 07:33 | 33.88056 | 126.69826 | 12699 ft | 391 kts | 8° |
| 2026-05-05 07:34 | 33.90756 | 126.70357 | 13399 ft | 395 kts | 8° |
| 2026-05-05 07:34 | 33.93485 | 126.70894 | 14075 ft | 399 kts | 8° |
| 2026-05-05 07:34 | 33.96242 | 126.71437 | 14721 ft | 403 kts | 7° |
| 2026-05-05 07:34 | 33.99021 | 126.71985 | 15412 ft | 406 kts | 7° |
| 2026-05-05 07:35 | 34.01821 | 126.72537 | 16101 ft | 409 kts | 7° |
| 2026-05-05 07:35 | 34.04606 | 126.73086 | 16757 ft | 413 kts | 7° |
| 2026-05-05 07:35 | 34.07453 | 126.73648 | 17394 ft | 417 kts | 7° |
| 2026-05-05 07:35 | 34.10327 | 126.74215 | 18022 ft | 420 kts | 7° |
| 2026-05-05 07:36 | 34.13221 | 126.74787 | 18603 ft | 424 kts | 7° |
| 2026-05-05 07:36 | 34.16149 | 126.75366 | 19098 ft | 429 kts | 7° |
| 2026-05-05 07:36 | 34.19108 | 126.75952 | 19616 ft | 433 kts | 7° |
| 2026-05-05 07:36 | 34.22101 | 126.76544 | 20136 ft | 437 kts | 7° |
| 2026-05-05 07:37 | 34.25115 | 126.77139 | 20634 ft | 441 kts | 6° |
| 2026-05-05 07:37 | 34.28167 | 126.77608 | 21109 ft | 444 kts | 3° |
| 2026-05-05 07:37 | 34.31254 | 126.77954 | 21583 ft | 447 kts | 2° |
| 2026-05-05 07:37 | 34.34369 | 126.78251 | 22045 ft | 451 kts | 1° |
| 2026-05-05 07:38 | 34.37503 | 126.78540 | 22503 ft | 455 kts | 1° |
| 2026-05-05 07:38 | 34.40678 | 126.78841 | 22950 ft | 459 kts | 1° |
| 2026-05-05 07:38 | 34.43882 | 126.79157 | 23109 ft | 466 kts | 1° |
| 2026-05-05 07:38 | 34.47126 | 126.79488 | 23111 ft | 470 kts | 2° |
| 2026-05-05 07:39 | 34.50375 | 126.79830 | 23117 ft | 467 kts | 2° |
| 2026-05-05 07:39 | 34.53601 | 126.80175 | 23107 ft | 464 kts | 2° |
| 2026-05-05 07:39 | 34.56813 | 126.80518 | 23129 ft | 465 kts | 2° |
| 2026-05-05 07:39 | 34.60037 | 126.80863 | 23117 ft | 465 kts | 2° |
| 2026-05-05 07:40 | 34.63260 | 126.81207 | 23111 ft | 465 kts | 2° |
| 2026-05-05 07:40 | 34.66481 | 126.81551 | 23116 ft | 465 kts | 2° |
| 2026-05-05 07:40 | 34.69702 | 126.81894 | 23104 ft | 464 kts | 2° |
| 2026-05-05 07:40 | 34.72920 | 126.82237 | 23110 ft | 464 kts | 2° |
| 2026-05-05 07:41 | 34.76138 | 126.82580 | 23110 ft | 464 kts | 2° |
| 2026-05-05 07:41 | 34.79354 | 126.82923 | 23109 ft | 464 kts | 2° |
| 2026-05-05 07:41 | 34.82573 | 126.83267 | 23100 ft | 464 kts | 2° |
| 2026-05-05 07:41 | 34.85797 | 126.83612 | 23103 ft | 464 kts | 2° |
| 2026-05-05 07:42 | 34.89012 | 126.83956 | 23101 ft | 464 kts | 2° |
| 2026-05-05 07:42 | 34.92224 | 126.84300 | 23099 ft | 464 kts | 2° |
| 2026-05-05 07:42 | 34.95398 | 126.84640 | 23105 ft | 464 kts | 2° |
| 2026-05-05 07:42 | 34.98613 | 126.84985 | 23099 ft | 464 kts | 2° |
| 2026-05-05 07:43 | 35.01827 | 126.85330 | 23102 ft | 464 kts | 2° |
| 2026-05-05 07:43 | 35.05038 | 126.85675 | 23100 ft | 463 kts | 2° |
| 2026-05-05 07:43 | 35.08254 | 126.86021 | 23102 ft | 463 kts | 2° |
| 2026-05-05 07:43 | 35.11466 | 126.86366 | 23098 ft | 463 kts | 2° |
| 2026-05-05 07:44 | 35.14678 | 126.86713 | 23101 ft | 463 kts | 2° |
| 2026-05-05 07:44 | 35.17884 | 126.87060 | 23104 ft | 463 kts | 3° |
| 2026-05-05 07:44 | 35.21091 | 126.87409 | 23097 ft | 462 kts | 3° |
| 2026-05-05 07:44 | 35.24302 | 126.87759 | 23091 ft | 462 kts | 3° |
| 2026-05-05 07:45 | 35.27495 | 126.88108 | 23093 ft | 461 kts | 3° |
| 2026-05-05 07:45 | 35.30691 | 126.88456 | 23096 ft | 461 kts | 3° |
| 2026-05-05 07:45 | 35.33885 | 126.88805 | 23091 ft | 461 kts | 3° |
| 2026-05-05 07:45 | 35.37075 | 126.89153 | 23092 ft | 461 kts | 3° |
| 2026-05-05 07:46 | 35.40266 | 126.89501 | 23096 ft | 460 kts | 3° |
| 2026-05-05 07:46 | 35.43457 | 126.89850 | 23099 ft | 460 kts | 3° |
| 2026-05-05 07:46 | 35.46643 | 126.90199 | 23092 ft | 460 kts | 3° |
| 2026-05-05 07:46 | 35.49836 | 126.90549 | 23091 ft | 460 kts | 3° |
| 2026-05-05 07:47 | 35.53027 | 126.90898 | 23092 ft | 460 kts | 3° |
| 2026-05-05 07:47 | 35.56211 | 126.91245 | 23099 ft | 460 kts | 4° |
| 2026-05-05 07:47 | 35.59400 | 126.91594 | 23093 ft | 460 kts | 4° |
| 2026-05-05 07:47 | 35.62587 | 126.91924 | 23095 ft | 459 kts | 1° |
| 2026-05-05 07:48 | 35.65760 | 126.91760 | 23087 ft | 456 kts | 350° |
| 2026-05-05 07:48 | 35.68900 | 126.91143 | 23095 ft | 456 kts | 349° |
| 2026-05-05 07:48 | 35.71989 | 126.90530 | 23098 ft | 456 kts | 349° |
| 2026-05-05 07:48 | 35.75125 | 126.89921 | 23100 ft | 456 kts | 349° |
| 2026-05-05 07:49 | 35.78253 | 126.89327 | 23097 ft | 456 kts | 349° |
| 2026-05-05 07:49 | 35.81390 | 126.88742 | 23096 ft | 456 kts | 350° |
| 2026-05-05 07:49 | 35.84527 | 126.88163 | 23103 ft | 456 kts | 350° |
| 2026-05-05 07:49 | 35.87669 | 126.87587 | 23088 ft | 456 kts | 350° |
| 2026-05-05 07:50 | 35.90809 | 126.87012 | 23090 ft | 456 kts | 350° |
| 2026-05-05 07:50 | 35.93948 | 126.86437 | 23092 ft | 456 kts | 350° |
| 2026-05-05 07:50 | 35.97091 | 126.85861 | 23094 ft | 456 kts | 350° |
| 2026-05-05 07:50 | 36.00236 | 126.85283 | 23096 ft | 457 kts | 349° |
| 2026-05-05 07:51 | 36.03374 | 126.84707 | 23088 ft | 457 kts | 350° |
| 2026-05-05 07:51 | 36.06521 | 126.84128 | 23098 ft | 456 kts | 350° |
| 2026-05-05 07:51 | 36.09654 | 126.83550 | 23094 ft | 456 kts | 350° |
| 2026-05-05 07:51 | 36.12793 | 126.82972 | 23098 ft | 456 kts | 350° |
| 2026-05-05 07:52 | 36.15932 | 126.82393 | 23101 ft | 456 kts | 350° |
| 2026-05-05 07:52 | 36.19069 | 126.81813 | 23102 ft | 456 kts | 350° |
| 2026-05-05 07:52 | 36.22203 | 126.81234 | 23101 ft | 455 kts | 350° |
| 2026-05-05 07:52 | 36.25336 | 126.80655 | 23109 ft | 455 kts | 350° |
| 2026-05-05 07:53 | 36.28470 | 126.80074 | 23104 ft | 455 kts | 349° |
| 2026-05-05 07:53 | 36.31596 | 126.79495 | 23104 ft | 455 kts | 349° |
| 2026-05-05 07:53 | 36.34730 | 126.78914 | 23101 ft | 455 kts | 350° |
| 2026-05-05 07:53 | 36.37860 | 126.78333 | 23102 ft | 455 kts | 350° |
| 2026-05-05 07:54 | 36.40990 | 126.77751 | 23106 ft | 455 kts | 350° |
| 2026-05-05 07:54 | 36.44081 | 126.77178 | 23078 ft | 440 kts | 350° |
| 2026-05-05 07:54 | 36.47066 | 126.76624 | 22756 ft | 429 kts | 350° |
| 2026-05-05 07:54 | 36.49988 | 126.76081 | 22257 ft | 422 kts | 350° |
| 2026-05-05 07:55 | 36.52869 | 126.75545 | 21714 ft | 416 kts | 351° |
| 2026-05-05 07:55 | 36.55715 | 126.75014 | 21121 ft | 412 kts | 351° |
| 2026-05-05 07:55 | 36.58499 | 126.74494 | 20563 ft | 408 kts | 351° |
| 2026-05-05 07:55 | 36.61326 | 126.73966 | 19984 ft | 404 kts | 352° |
| 2026-05-05 07:56 | 36.64094 | 126.73448 | 19420 ft | 400 kts | 352° |
| 2026-05-05 07:56 | 36.66799 | 126.72941 | 18876 ft | 397 kts | 352° |
| 2026-05-05 07:56 | 36.69522 | 126.72431 | 18302 ft | 394 kts | 352° |
| 2026-05-05 07:56 | 36.72224 | 126.71925 | 17662 ft | 392 kts | 352° |
| 2026-05-05 07:57 | 36.74911 | 126.71422 | 17083 ft | 388 kts | 352° |
| 2026-05-05 07:57 | 36.77567 | 126.70924 | 16517 ft | 385 kts | 352° |
| 2026-05-05 07:57 | 36.80204 | 126.70429 | 15967 ft | 381 kts | 351° |
| 2026-05-05 07:57 | 36.82820 | 126.69938 | 15422 ft | 379 kts | 351° |
| 2026-05-05 07:58 | 36.85411 | 126.69451 | 14889 ft | 376 kts | 351° |
| 2026-05-05 07:58 | 36.87999 | 126.68965 | 14354 ft | 374 kts | 351° |
| 2026-05-05 07:58 | 36.90567 | 126.68482 | 13814 ft | 372 kts | 351° |
| 2026-05-05 07:58 | 36.93125 | 126.68000 | 13218 ft | 370 kts | 351° |
| 2026-05-05 07:59 | 36.95668 | 126.67521 | 12610 ft | 370 kts | 350° |
| 2026-05-05 07:59 | 36.98200 | 126.67044 | 12066 ft | 367 kts | 350° |
| 2026-05-05 07:59 | 37.00716 | 126.66570 | 11537 ft | 364 kts | 350° |
| 2026-05-05 07:59 | 37.03211 | 126.66099 | 11020 ft | 361 kts | 349° |
| 2026-05-05 08:00 | 37.05670 | 126.65635 | 10782 ft | 350 kts | 349° |
| 2026-05-05 08:00 | 37.08037 | 126.65189 | 10620 ft | 338 kts | 349° |
| 2026-05-05 08:00 | 37.10323 | 126.64758 | 10476 ft | 327 kts | 349° |
| 2026-05-05 08:00 | 37.12533 | 126.64340 | 10332 ft | 316 kts | 349° |
| 2026-05-05 08:01 | 37.14676 | 126.63935 | 10206 ft | 306 kts | 349° |
| 2026-05-05 08:01 | 37.16748 | 126.63543 | 10082 ft | 297 kts | 349° |
| 2026-05-05 08:01 | 37.18768 | 126.63160 | 9880 ft | 291 kts | 349° |
| 2026-05-05 08:01 | 37.20767 | 126.62779 | 9555 ft | 289 kts | 348° |
| 2026-05-05 08:02 | 37.22748 | 126.62402 | 9266 ft | 287 kts | 348° |
| 2026-05-05 08:02 | 37.24716 | 126.62027 | 8964 ft | 285 kts | 349° |
| 2026-05-05 08:02 | 37.26650 | 126.61659 | 8674 ft | 284 kts | 348° |
| 2026-05-05 08:02 | 37.28618 | 126.61284 | 8374 ft | 282 kts | 348° |
| 2026-05-05 08:03 | 37.30529 | 126.60920 | 8080 ft | 281 kts | 348° |
| 2026-05-05 08:03 | 37.32455 | 126.60554 | 7788 ft | 279 kts | 348° |
| 2026-05-05 08:03 | 37.34368 | 126.60189 | 7497 ft | 278 kts | 348° |
| 2026-05-05 08:03 | 37.36275 | 126.59826 | 7198 ft | 277 kts | 348° |
| 2026-05-05 08:04 | 37.38176 | 126.59463 | 6928 ft | 276 kts | 348° |
| 2026-05-05 08:04 | 37.40054 | 126.59105 | 6624 ft | 270 kts | 348° |
| 2026-05-05 08:04 | 37.41883 | 126.58758 | 6327 ft | 262 kts | 348° |
| 2026-05-05 08:04 | 37.43662 | 126.58419 | 6036 ft | 255 kts | 348° |
| 2026-05-05 08:05 | 37.45412 | 126.58085 | 5761 ft | 254 kts | 348° |
| 2026-05-05 08:05 | 37.47160 | 126.57749 | 5505 ft | 254 kts | 348° |
| 2026-05-05 08:05 | 37.48904 | 126.57415 | 5235 ft | 253 kts | 348° |
| 2026-05-05 08:05 | 37.50639 | 126.57082 | 4973 ft | 252 kts | 348° |
| 2026-05-05 08:06 | 37.52374 | 126.56750 | 4694 ft | 252 kts | 348° |
| 2026-05-05 08:06 | 37.54101 | 126.56420 | 4416 ft | 251 kts | 348° |
| 2026-05-05 08:06 | 37.55806 | 126.56094 | 4287 ft | 244 kts | 348° |
| 2026-05-05 08:06 | 37.57458 | 126.55779 | 4172 ft | 236 kts | 348° |
| 2026-05-05 08:07 | 37.59038 | 126.55479 | 4091 ft | 224 kts | 348° |
| 2026-05-05 08:07 | 37.60591 | 126.55611 | 3907 ft | 229 kts | 22° |
| 2026-05-05 08:07 | 37.61816 | 126.56809 | 3786 ft | 221 kts | 46° |
| 2026-05-05 08:07 | 37.62890 | 126.58184 | 3582 ft | 220 kts | 45° |
| 2026-05-05 08:08 | 37.63971 | 126.59550 | 3394 ft | 218 kts | 44° |
| 2026-05-05 08:08 | 37.65017 | 126.60867 | 3180 ft | 207 kts | 45° |
| 2026-05-05 08:08 | 37.66021 | 126.62129 | 3009 ft | 203 kts | 46° |
| 2026-05-05 08:08 | 37.66751 | 126.63600 | 2860 ft | 194 kts | 87° |
| 2026-05-05 08:09 | 37.66491 | 126.65133 | 2787 ft | 175 kts | 134° |
| 2026-05-05 08:09 | 37.65686 | 126.66302 | 2566 ft | 177 kts | 140° |
| 2026-05-05 08:09 | 37.64856 | 126.67401 | 2317 ft | 168 kts | 142° |
| 2026-05-05 08:09 | 37.64075 | 126.68397 | 2107 ft | 155 kts | 144° |
| 2026-05-05 08:10 | 37.63327 | 126.69339 | 1941 ft | 150 kts | 144° |
| 2026-05-05 08:10 | 37.62596 | 126.70260 | 1710 ft | 144 kts | 143° |
| 2026-05-05 08:10 | 37.61898 | 126.71140 | 1482 ft | 141 kts | 142° |
| 2026-05-05 08:10 | 37.61177 | 126.72031 | 1318 ft | 145 kts | 140° |
| 2026-05-05 08:11 | 37.60492 | 126.72927 | 1113 ft | 142 kts | 142° |
| 2026-05-05 08:11 | 37.59788 | 126.73814 | 925 ft | 142 kts | 142° |
| 2026-05-05 08:11 | 37.59085 | 126.74685 | 747 ft | 143 kts | 142° |
| 2026-05-05 08:11 | 37.58614 | 126.75288 | 597 ft | 147 kts | 140° |
| 2026-05-05 08:12 | 37.57891 | 126.76199 | 392 ft | 148 kts | 141° |
| 2026-05-05 08:12 | 37.57170 | 126.77125 | 222 ft | 148 kts | 142° |
| 2026-05-05 08:12 | 37.56447 | 126.78035 | 70 ft | 144 kts | 143° |
| 2026-05-05 08:12 | 37.55811 | 126.78832 | 61 ft | 109 kts | 134° |
| 2026-05-05 08:13 | 37.55380 | 126.79376 | 64 ft | 66 kts | 134° |
| 2026-05-05 08:13 | 37.55145 | 126.79672 | 66 ft | 35 kts | 135° |
| 2026-05-05 08:13 | 37.54997 | 126.79859 | 64 ft | 27 kts | 135° |
| 2026-05-05 08:13 | 37.54897 | 126.79984 | 63 ft | 19 kts | 136° |
| 2026-05-05 08:14 | 37.54826 | 126.80098 | 65 ft | 12 kts | 79° |
| 2026-05-05 08:14 | 37.54884 | 126.80193 | 60 ft | 16 kts | 45° |
| 2026-05-05 08:14 | 37.54968 | 126.80294 | 64 ft | 17 kts | 40° |
| 2026-05-05 08:14 | 37.55055 | 126.80391 | 65 ft | 17 kts | 52° |
| 2026-05-05 08:15 | 37.55139 | 126.80513 | 67 ft | 19 kts | 49° |
| 2026-05-05 08:15 | 37.55235 | 126.80638 | 66 ft | 20 kts | 43° |
| 2026-05-05 08:15 | 37.55342 | 126.80609 | 61 ft | 18 kts | 313° |
| 2026-05-05 08:15 | 37.55428 | 126.80500 | 64 ft | 15 kts | 315° |
| 2026-05-05 08:16 | 37.55501 | 126.80408 | 66 ft | 15 kts | 315° |
| 2026-05-05 08:16 | 37.55588 | 126.80333 | 63 ft | 16 kts | 348° |
| 2026-05-05 08:16 | 37.55666 | 126.80395 | 57 ft | 7 kts | 45° |
| 2026-05-05 08:16 | 37.55689 | 126.80423 | 63 ft | 2 kts | 45° |
| 2026-05-05 08:17 | 37.55691 | 126.80427 | 59 ft | 0 kts | 45° |